Moore, Idaho
Current Conditions -  °F | °C
As of 8:47 AM on Friday 24 Oct 2014 (Local Time) from KSUN Reporting Station
Broken Clouds Broken Clouds  
Wind Chill: 45°   Ceiling: 9000
Heat Index: 45°   Visibility: 10mi
Dew Point: 45°   Wind: 0mph
Humidity: 100%   Direction: NA
Pressure: 30.17"   Gusts: NA
Location:  43.74°N, 113.37°W
Report Text: KSUN 241447Z 00000KT 10SM BKN090 BKN120 07/07 A3017
Loading
Personal Weather Stations






























Interactive Weather Map
Tropical Storm Tracking
New forecast layout! Learn more

10-Day Weather Forecast

Advertisements
Track Severe Weather on mobile